KFLY

Meadow Lake Airport

Colorado Springs, Colorado, USA
METAR KFLY 140455Z AUTO 33005KT 10SM CLR M01/M08 A3044 RMK AO2 T10121076
Observed Flight Rules
Nov-14 @ 04:55 UTC (22 minutes ago) Visual Flight Rules
Wind Visibility Clouds
330° at 5 knots 10 miles
  • Clear skies
Temperatures Readings
Current -1°C / 30°F
Dewpoint -8°C / 18°F
Humidity 59%
Altimeter 30.44" Hg
Pressure 1031 hPa
Elevation 2096
METAR KFLY 140455Z AUTO 33005KT 10SM CLR M01/M08 A3044 RMK AO2 T10121076
Observed Flight Rules
Nov-14 @ 04:55 UTC
(22 minutes ago)
VFR
Wind Visibility
330° at 5 knots 10 miles
Clouds
  • Clear skies
Temperature Dewpoint
-1°C / 30°F -8°C / 18°F
Humidity Altimeter Pressure
59% 30.44" Hg 1031 hPa